sensor_id;sensor_type;location;lat;lon;timestamp;temperature;humidity
44855;DHT22;30591;48.228;16.398;2022-08-11T00:01:55;21.50;99.90
44855;DHT22;30591;48.228;16.398;2022-08-11T00:04:23;21.50;99.90
44855;DHT22;30591;48.228;16.398;2022-08-11T00:06:51;21.40;99.90
44855;DHT22;30591;48.228;16.398;2022-08-11T00:09:22;21.50;99.90
44855;DHT22;30591;48.228;16.398;2022-08-11T00:11:57;21.60;99.90
44855;DHT22;30591;48.228;16.398;2022-08-11T00:14:32;21.60;99.90
44855;DHT22;30591;48.228;16.398;2022-08-11T00:17:04;21.70;99.90
44855;DHT22;30591;48.228;16.398;2022-08-11T00:19:37;21.50;99.90
44855;DHT22;30591;48.228;16.398;2022-08-11T00:22:25;21.30;99.90
44855;DHT22;30591;48.228;16.398;2022-08-11T00:24:52;21.20;99.90
44855;DHT22;30591;48.228;16.398;2022-08-11T00:27:34;21.10;99.90
44855;DHT22;30591;48.228;16.398;2022-08-11T00:30:02;21.30;99.90
44855;DHT22;30591;48.228;16.398;2022-08-11T00:32:30;21.40;99.90
44855;DHT22;30591;48.228;16.398;2022-08-11T00:34:59;21.60;99.90
44855;DHT22;30591;48.228;16.398;2022-08-11T00:37:48;21.70;99.90
44855;DHT22;30591;48.228;16.398;2022-08-11T00:40:24;21.40;99.90
44855;DHT22;30591;48.228;16.398;2022-08-11T00:43:22;21.40;99.90
44855;DHT22;30591;48.228;16.398;2022-08-11T00:51:49;21.30;99.90
44855;DHT22;30591;48.228;16.398;2022-08-11T01:00:22;21.10;99.90
44855;DHT22;30591;48.228;16.398;2022-08-11T01:03:14;21.00;99.90
44855;DHT22;30591;48.228;16.398;2022-08-11T01:06:05;21.00;99.90
44855;DHT22;30591;48.228;16.398;2022-08-11T01:46:27;20.90;99.90
44855;DHT22;30591;48.228;16.398;2022-08-11T01:49:14;21.00;99.90
44855;DHT22;30591;48.228;16.398;2022-08-11T01:52:08;21.00;99.90
44855;DHT22;30591;48.228;16.398;2022-08-11T01:54:58;20.80;99.90
44855;DHT22;30591;48.228;16.398;2022-08-11T01:57:45;21.10;99.90
44855;DHT22;30591;48.228;16.398;2022-08-11T02:00:19;20.80;99.90
44855;DHT22;30591;48.228;16.398;2022-08-11T02:05:56;21.00;99.90
44855;DHT22;30591;48.228;16.398;2022-08-11T02:08:44;20.80;99.90
44855;DHT22;30591;48.228;16.398;2022-08-11T02:11:26;20.60;99.90
44855;DHT22;30591;48.228;16.398;2022-08-11T02:17:09;20.90;99.90
44855;DHT22;30591;48.228;16.398;2022-08-11T02:22:56;20.90;99.90
44855;DHT22;30591;48.228;16.398;2022-08-11T02:26:21;20.70;99.90
44855;DHT22;30591;48.228;16.398;2022-08-11T02:29:03;20.30;99.90
44855;DHT22;30591;48.228;16.398;2022-08-11T02:34:44;20.20;99.90
44855;DHT22;30591;48.228;16.398;2022-08-11T02:37:35;20.30;99.90
44855;DHT22;30591;48.228;16.398;2022-08-11T02:43:12;20.20;99.90
44855;DHT22;30591;48.228;16.398;2022-08-11T02:45:55;20.10;99.90
44855;DHT22;30591;48.228;16.398;2022-08-11T02:48:51;20.00;99.90
44855;DHT22;30591;48.228;16.398;2022-08-11T02:51:54;20.40;99.90
44855;DHT22;30591;48.228;16.398;2022-08-11T02:54:50;20.30;99.90
44855;DHT22;30591;48.228;16.398;2022-08-11T02:57:42;20.20;99.90
44855;DHT22;30591;48.228;16.398;2022-08-11T03:00:15;20.30;99.90
44855;DHT22;30591;48.228;16.398;2022-08-11T03:02:59;20.20;99.90
44855;DHT22;30591;48.228;16.398;2022-08-11T03:11:10;20.30;99.90
44855;DHT22;30591;48.228;16.398;2022-08-11T03:14:18;20.40;99.90
44855;DHT22;30591;48.228;16.398;2022-08-11T03:17:19;20.40;99.90
44855;DHT22;30591;48.228;16.398;2022-08-11T03:20:10;20.20;99.90
44855;DHT22;30591;48.228;16.398;2022-08-11T03:23:03;19.90;99.90
44855;DHT22;30591;48.228;16.398;2022-08-11T03:31:18;19.60;99.90
44855;DHT22;30591;48.228;16.398;2022-08-11T03:34:03;19.60;99.90
44855;DHT22;30591;48.228;16.398;2022-08-11T03:40:02;19.60;99.90
44855;DHT22;30591;48.228;16.398;2022-08-11T03:42:58;19.30;99.90
44855;DHT22;30591;48.228;16.398;2022-08-11T03:45:36;19.30;99.90
44855;DHT22;30591;48.228;16.398;2022-08-11T03:48:24;19.70;99.90
44855;DHT22;30591;48.228;16.398;2022-08-11T03:50:54;19.70;99.90
44855;DHT22;30591;48.228;16.398;2022-08-11T04:02:28;19.30;99.90
44855;DHT22;30591;48.228;16.398;2022-08-11T04:20:29;18.80;99.90
44855;DHT22;30591;48.228;16.398;2022-08-11T04:29:22;19.30;99.90
44855;DHT22;30591;48.228;16.398;2022-08-11T04:41:19;19.60;99.90
44855;DHT22;30591;48.228;16.398;2022-08-11T04:44:23;19.70;99.90
44855;DHT22;30591;48.228;16.398;2022-08-11T04:59:07;19.40;99.90
44855;DHT22;30591;48.228;16.398;2022-08-11T05:13:44;19.90;99.90
44855;DHT22;30591;48.228;16.398;2022-08-11T05:16:34;19.60;99.90
44855;DHT22;30591;48.228;16.398;2022-08-11T05:19:25;19.60;99.90
44855;DHT22;30591;48.228;16.398;2022-08-11T05:22:12;19.70;99.90
44855;DHT22;30591;48.228;16.398;2022-08-11T05:28:16;20.10;99.90
44855;DHT22;30591;48.228;16.398;2022-08-11T05:31:13;19.90;99.90
44855;DHT22;30591;48.228;16.398;2022-08-11T05:34:11;19.90;99.90
44855;DHT22;30591;48.228;16.398;2022-08-11T05:37:54;20.00;99.90
44855;DHT22;30591;48.228;16.398;2022-08-11T05:40:12;20.00;99.90
44855;DHT22;30591;48.228;16.398;2022-08-11T05:43:00;19.90;99.90
44855;DHT22;30591;48.228;16.398;2022-08-11T05:46:04;19.90;99.90
44855;DHT22;30591;48.228;16.398;2022-08-11T05:48:51;20.00;99.90
44855;DHT22;30591;48.228;16.398;2022-08-11T05:51:40;20.20;99.90
44855;DHT22;30591;48.228;16.398;2022-08-11T05:54:40;20.20;99.90
44855;DHT22;30591;48.228;16.398;2022-08-11T05:57:34;20.50;99.90
44855;DHT22;30591;48.228;16.398;2022-08-11T06:00:17;20.50;99.90
44855;DHT22;30591;48.228;16.398;2022-08-11T06:02:49;20.10;99.90
44855;DHT22;30591;48.228;16.398;2022-08-11T06:05:31;20.00;99.90
44855;DHT22;30591;48.228;16.398;2022-08-11T06:08:08;20.20;99.90
44855;DHT22;30591;48.228;16.398;2022-08-11T06:10:38;20.70;99.90
44855;DHT22;30591;48.228;16.398;2022-08-11T06:13:07;20.40;99.90
44855;DHT22;30591;48.228;16.398;2022-08-11T06:15:47;20.30;99.90
44855;DHT22;30591;48.228;16.398;2022-08-11T06:18:15;20.50;99.90
44855;DHT22;30591;48.228;16.398;2022-08-11T06:21:01;20.00;99.90
44855;DHT22;30591;48.228;16.398;2022-08-11T06:23:34;20.40;99.90
44855;DHT22;30591;48.228;16.398;2022-08-11T06:26:07;20.50;99.90
44855;DHT22;30591;48.228;16.398;2022-08-11T06:28:37;20.10;99.90
44855;DHT22;30591;48.228;16.398;2022-08-11T06:31:31;20.20;99.90
44855;DHT22;30591;48.228;16.398;2022-08-11T06:36:37;20.40;99.90
44855;DHT22;30591;48.228;16.398;2022-08-11T06:41:53;20.40;99.90
44855;DHT22;30591;48.228;16.398;2022-08-11T06:44:51;20.20;99.90
44855;DHT22;30591;48.228;16.398;2022-08-11T06:47:20;20.60;99.90
44855;DHT22;30591;48.228;16.398;2022-08-11T06:49:47;20.80;99.90
44855;DHT22;30591;48.228;16.398;2022-08-11T06:52:35;20.90;99.90
44855;DHT22;30591;48.228;16.398;2022-08-11T06:55:14;20.90;99.90
44855;DHT22;30591;48.228;16.398;2022-08-11T06:58:31;21.00;99.90
44855;DHT22;30591;48.228;16.398;2022-08-11T07:01:38;21.20;99.90
44855;DHT22;30591;48.228;16.398;2022-08-11T07:04:20;21.10;99.90
44855;DHT22;30591;48.228;16.398;2022-08-11T07:13:04;21.80;99.90
44855;DHT22;30591;48.228;16.398;2022-08-11T07:16:13;21.80;99.90
44855;DHT22;30591;48.228;16.398;2022-08-11T07:18:42;21.80;99.90
44855;DHT22;30591;48.228;16.398;2022-08-11T07:21:33;21.70;99.90
44855;DHT22;30591;48.228;16.398;2022-08-11T07:24:41;21.80;99.90
44855;DHT22;30591;48.228;16.398;2022-08-11T07:27:41;22.20;99.90
44855;DHT22;30591;48.228;16.398;2022-08-11T07:30:28;22.00;99.90
44855;DHT22;30591;48.228;16.398;2022-08-11T07:32:58;21.80;99.90
44855;DHT22;30591;48.228;16.398;2022-08-11T07:35:43;21.60;99.90
44855;DHT22;30591;48.228;16.398;2022-08-11T07:38:17;21.80;99.90
44855;DHT22;30591;48.228;16.398;2022-08-11T07:40:51;22.00;99.90
44855;DHT22;30591;48.228;16.398;2022-08-11T07:43:18;21.70;99.90
44855;DHT22;30591;48.228;16.398;2022-08-11T07:45:45;21.90;99.90
44855;DHT22;30591;48.228;16.398;2022-08-11T07:48:32;22.00;99.90
44855;DHT22;30591;48.228;16.398;2022-08-11T07:51:20;22.10;99.90
44855;DHT22;30591;48.228;16.398;2022-08-11T07:54:05;22.20;99.90
44855;DHT22;30591;48.228;16.398;2022-08-11T07:56:44;22.20;99.90
44855;DHT22;30591;48.228;16.398;2022-08-11T07:59:31;22.20;99.90
44855;DHT22;30591;48.228;16.398;2022-08-11T08:02:42;22.40;99.90
44855;DHT22;30591;48.228;16.398;2022-08-11T08:05:28;22.50;99.90
44855;DHT22;30591;48.228;16.398;2022-08-11T08:08:15;22.60;99.90
44855;DHT22;30591;48.228;16.398;2022-08-11T08:11:01;22.40;99.90
44855;DHT22;30591;48.228;16.398;2022-08-11T08:13:53;22.60;99.90
44855;DHT22;30591;48.228;16.398;2022-08-11T08:16:39;22.60;99.90
44855;DHT22;30591;48.228;16.398;2022-08-11T08:19:26;22.90;99.90
44855;DHT22;30591;48.228;16.398;2022-08-11T08:21:53;22.50;99.90
44855;DHT22;30591;48.228;16.398;2022-08-11T08:24:33;22.70;99.90
44855;DHT22;30591;48.228;16.398;2022-08-11T08:27:00;22.70;99.90
44855;DHT22;30591;48.228;16.398;2022-08-11T08:29:32;23.00;99.90
44855;DHT22;30591;48.228;16.398;2022-08-11T08:32:19;23.10;99.90
44855;DHT22;30591;48.228;16.398;2022-08-11T08:34:51;23.10;99.90
44855;DHT22;30591;48.228;16.398;2022-08-11T08:37:22;23.30;99.90
44855;DHT22;30591;48.228;16.398;2022-08-11T08:40:10;23.20;99.90
44855;DHT22;30591;48.228;16.398;2022-08-11T08:42:44;23.40;99.90
44855;DHT22;30591;48.228;16.398;2022-08-11T08:45:13;23.60;99.90
44855;DHT22;30591;48.228;16.398;2022-08-11T08:47:56;23.60;99.90
44855;DHT22;30591;48.228;16.398;2022-08-11T08:50:34;23.50;99.90
44855;DHT22;30591;48.228;16.398;2022-08-11T08:53:24;23.60;99.90
44855;DHT22;30591;48.228;16.398;2022-08-11T08:55:57;23.70;99.90
44855;DHT22;30591;48.228;16.398;2022-08-11T08:58:26;23.90;99.90
44855;DHT22;30591;48.228;16.398;2022-08-11T09:00:54;24.00;99.90
44855;DHT22;30591;48.228;16.398;2022-08-11T09:03:22;24.00;99.90
44855;DHT22;30591;48.228;16.398;2022-08-11T09:06:09;24.20;99.90
44855;DHT22;30591;48.228;16.398;2022-08-11T09:08:37;24.40;99.90
44855;DHT22;30591;48.228;16.398;2022-08-11T09:11:06;24.50;99.90
44855;DHT22;30591;48.228;16.398;2022-08-11T09:13:53;24.70;99.90
44855;DHT22;30591;48.228;16.398;2022-08-11T09:16:37;24.60;99.90
44855;DHT22;30591;48.228;16.398;2022-08-11T09:19:06;25.00;99.90
44855;DHT22;30591;48.228;16.398;2022-08-11T09:21:33;25.20;99.90
44855;DHT22;30591;48.228;16.398;2022-08-11T09:24:16;25.20;99.90
44855;DHT22;30591;48.228;16.398;2022-08-11T09:27:06;25.00;99.90
44855;DHT22;30591;48.228;16.398;2022-08-11T09:29:34;24.80;99.90
44855;DHT22;30591;48.228;16.398;2022-08-11T09:32:04;24.90;99.90
44855;DHT22;30591;48.228;16.398;2022-08-11T09:34:35;24.90;99.90
44855;DHT22;30591;48.228;16.398;2022-08-11T09:37:04;24.70;99.90
44855;DHT22;30591;48.228;16.398;2022-08-11T09:40:10;24.50;99.90
44855;DHT22;30591;48.228;16.398;2022-08-11T09:43:02;24.30;99.90
44855;DHT22;30591;48.228;16.398;2022-08-11T09:45:51;24.20;99.90
44855;DHT22;30591;48.228;16.398;2022-08-11T09:48:19;24.20;99.90
44855;DHT22;30591;48.228;16.398;2022-08-11T09:50:49;24.80;99.90
44855;DHT22;30591;48.228;16.398;2022-08-11T09:53:18;25.20;99.90
44855;DHT22;30591;48.228;16.398;2022-08-11T09:56:10;25.20;99.90
44855;DHT22;30591;48.228;16.398;2022-08-11T09:58:57;25.10;99.90
44855;DHT22;30591;48.228;16.398;2022-08-11T10:01:29;25.10;99.90
44855;DHT22;30591;48.228;16.398;2022-08-11T10:04:02;25.60;99.90
44855;DHT22;30591;48.228;16.398;2022-08-11T10:06:30;25.80;99.90
44855;DHT22;30591;48.228;16.398;2022-08-11T10:09:22;25.90;99.90
44855;DHT22;30591;48.228;16.398;2022-08-11T10:11:56;26.10;99.90
44855;DHT22;30591;48.228;16.398;2022-08-11T10:14:26;26.20;99.90
44855;DHT22;30591;48.228;16.398;2022-08-11T10:17:14;26.10;99.90
44855;DHT22;30591;48.228;16.398;2022-08-11T10:19:44;26.20;99.90
44855;DHT22;30591;48.228;16.398;2022-08-11T10:22:31;26.00;99.90
44855;DHT22;30591;48.228;16.398;2022-08-11T10:25:17;25.60;99.90
44855;DHT22;30591;48.228;16.398;2022-08-11T10:28:07;25.40;99.90
44855;DHT22;30591;48.228;16.398;2022-08-11T10:30:56;25.40;99.90
44855;DHT22;30591;48.228;16.398;2022-08-11T10:33:44;25.50;99.90
44855;DHT22;30591;48.228;16.398;2022-08-11T10:36:30;25.40;99.90
44855;DHT22;30591;48.228;16.398;2022-08-11T10:38:59;25.60;99.90
44855;DHT22;30591;48.228;16.398;2022-08-11T10:41:27;25.80;99.90
44855;DHT22;30591;48.228;16.398;2022-08-11T10:44:45;25.60;99.90
44855;DHT22;30591;48.228;16.398;2022-08-11T10:47:13;25.30;99.90
44855;DHT22;30591;48.228;16.398;2022-08-11T10:50:08;25.50;99.90
44855;DHT22;30591;48.228;16.398;2022-08-11T10:52:56;25.60;99.90
44855;DHT22;30591;48.228;16.398;2022-08-11T10:55:43;25.50;99.90
44855;DHT22;30591;48.228;16.398;2022-08-11T10:58:31;25.60;99.90
44855;DHT22;30591;48.228;16.398;2022-08-11T11:01:11;25.90;99.90
44855;DHT22;30591;48.228;16.398;2022-08-11T11:03:41;25.90;99.90
44855;DHT22;30591;48.228;16.398;2022-08-11T11:06:18;26.00;99.90
44855;DHT22;30591;48.228;16.398;2022-08-11T11:11:37;25.80;98.80
44855;DHT22;30591;48.228;16.398;2022-08-11T11:14:27;26.20;98.40
44855;DHT22;30591;48.228;16.398;2022-08-11T11:17:31;26.30;97.80
44855;DHT22;30591;48.228;16.398;2022-08-11T11:20:27;26.40;97.20
44855;DHT22;30591;48.228;16.398;2022-08-11T11:26:19;25.90;97.60
44855;DHT22;30591;48.228;16.398;2022-08-11T11:29:19;25.90;97.60
44855;DHT22;30591;48.228;16.398;2022-08-11T11:35:02;25.70;96.80
44855;DHT22;30591;48.228;16.398;2022-08-11T11:37:32;25.70;96.60
44855;DHT22;30591;48.228;16.398;2022-08-11T11:40:14;25.80;97.00
44855;DHT22;30591;48.228;16.398;2022-08-11T11:42:44;25.80;97.10
44855;DHT22;30591;48.228;16.398;2022-08-11T11:45:16;26.20;96.90
44855;DHT22;30591;48.228;16.398;2022-08-11T11:47:51;26.60;95.60
44855;DHT22;30591;48.228;16.398;2022-08-11T11:50:28;27.00;94.80
44855;DHT22;30591;48.228;16.398;2022-08-11T11:53:01;27.50;94.20
44855;DHT22;30591;48.228;16.398;2022-08-11T11:55:30;27.60;91.80
44855;DHT22;30591;48.228;16.398;2022-08-11T11:57:59;27.10;91.80
44855;DHT22;30591;48.228;16.398;2022-08-11T12:00:48;26.60;92.00
44855;DHT22;30591;48.228;16.398;2022-08-11T12:03:35;26.80;92.00
44855;DHT22;30591;48.228;16.398;2022-08-11T12:06:04;26.60;91.20
44855;DHT22;30591;48.228;16.398;2022-08-11T12:08:33;26.60;91.50
44855;DHT22;30591;48.228;16.398;2022-08-11T12:11:03;26.30;92.00
44855;DHT22;30591;48.228;16.398;2022-08-11T12:13:52;26.20;92.80
44855;DHT22;30591;48.228;16.398;2022-08-11T12:16:21;26.10;93.10
44855;DHT22;30591;48.228;16.398;2022-08-11T12:19:05;26.20;92.80
44855;DHT22;30591;48.228;16.398;2022-08-11T12:21:34;26.10;92.20
44855;DHT22;30591;48.228;16.398;2022-08-11T12:24:03;26.10;90.70
44855;DHT22;30591;48.228;16.398;2022-08-11T12:26:56;26.20;89.90
44855;DHT22;30591;48.228;16.398;2022-08-11T12:29:49;26.20;87.50
44855;DHT22;30591;48.228;16.398;2022-08-11T12:32:23;26.30;87.20
44855;DHT22;30591;48.228;16.398;2022-08-11T12:34:52;26.60;84.10
44855;DHT22;30591;48.228;16.398;2022-08-11T12:37:23;27.10;85.30
44855;DHT22;30591;48.228;16.398;2022-08-11T12:39:59;27.30;83.10
44855;DHT22;30591;48.228;16.398;2022-08-11T12:43:08;27.50;83.70
44855;DHT22;30591;48.228;16.398;2022-08-11T12:46:11;27.70;83.10
44855;DHT22;30591;48.228;16.398;2022-08-11T12:48:48;27.80;81.70
44855;DHT22;30591;48.228;16.398;2022-08-11T12:51:37;27.70;83.90
44855;DHT22;30591;48.228;16.398;2022-08-11T12:54:58;27.70;84.20
44855;DHT22;30591;48.228;16.398;2022-08-11T13:00:15;27.70;83.60
44855;DHT22;30591;48.228;16.398;2022-08-11T13:03:02;27.60;83.60
44855;DHT22;30591;48.228;16.398;2022-08-11T13:05:52;27.50;80.80
44855;DHT22;30591;48.228;16.398;2022-08-11T13:08:22;27.70;82.00
44855;DHT22;30591;48.228;16.398;2022-08-11T13:10:51;28.10;81.00
44855;DHT22;30591;48.228;16.398;2022-08-11T13:13:40;27.90;81.70
44855;DHT22;30591;48.228;16.398;2022-08-11T13:16:24;28.10;81.90
44855;DHT22;30591;48.228;16.398;2022-08-11T13:18:52;27.80;82.80
44855;DHT22;30591;48.228;16.398;2022-08-11T13:21:20;27.90;81.70
44855;DHT22;30591;48.228;16.398;2022-08-11T13:23:51;28.20;81.70
44855;DHT22;30591;48.228;16.398;2022-08-11T13:26:36;27.80;81.30
44855;DHT22;30591;48.228;16.398;2022-08-11T13:29:23;27.20;82.60
44855;DHT22;30591;48.228;16.398;2022-08-11T13:31:53;26.70;84.70
44855;DHT22;30591;48.228;16.398;2022-08-11T13:34:23;26.70;84.60
44855;DHT22;30591;48.228;16.398;2022-08-11T13:36:53;26.80;85.60
44855;DHT22;30591;48.228;16.398;2022-08-11T13:39:25;26.70;86.10
44855;DHT22;30591;48.228;16.398;2022-08-11T13:41:54;26.70;85.80
44855;DHT22;30591;48.228;16.398;2022-08-11T13:44:24;26.50;86.20
44855;DHT22;30591;48.228;16.398;2022-08-11T13:46:56;26.60;86.80
44855;DHT22;30591;48.228;16.398;2022-08-11T13:49:25;26.50;87.00
44855;DHT22;30591;48.228;16.398;2022-08-11T13:51:53;26.50;88.20
44855;DHT22;30591;48.228;16.398;2022-08-11T13:54:26;26.30;90.00
44855;DHT22;30591;48.228;16.398;2022-08-11T13:57:01;26.40;90.60
44855;DHT22;30591;48.228;16.398;2022-08-11T13:59:35;26.50;90.50
44855;DHT22;30591;48.228;16.398;2022-08-11T14:02:20;26.60;90.80
44855;DHT22;30591;48.228;16.398;2022-08-11T14:05:05;26.80;90.70
44855;DHT22;30591;48.228;16.398;2022-08-11T14:07:37;26.90;90.00
44855;DHT22;30591;48.228;16.398;2022-08-11T14:10:07;27.10;89.70
44855;DHT22;30591;48.228;16.398;2022-08-11T14:12:36;27.00;89.90
44855;DHT22;30591;48.228;16.398;2022-08-11T14:15:25;27.00;89.80
44855;DHT22;30591;48.228;16.398;2022-08-11T14:18:05;26.90;90.40
44855;DHT22;30591;48.228;16.398;2022-08-11T14:20:39;27.00;90.20
44855;DHT22;30591;48.228;16.398;2022-08-11T14:23:38;26.90;90.40
44855;DHT22;30591;48.228;16.398;2022-08-11T14:26:07;26.70;91.50
44855;DHT22;30591;48.228;16.398;2022-08-11T14:28:52;26.70;91.50
44855;DHT22;30591;48.228;16.398;2022-08-11T14:31:26;26.70;91.00
44855;DHT22;30591;48.228;16.398;2022-08-11T14:33:55;26.70;90.90
44855;DHT22;30591;48.228;16.398;2022-08-11T14:36:38;26.60;90.50
44855;DHT22;30591;48.228;16.398;2022-08-11T14:39:09;26.70;90.90
44855;DHT22;30591;48.228;16.398;2022-08-11T14:41:41;26.80;90.70
44855;DHT22;30591;48.228;16.398;2022-08-11T14:44:43;26.80;90.80
44855;DHT22;30591;48.228;16.398;2022-08-11T14:47:32;26.70;91.80
44855;DHT22;30591;48.228;16.398;2022-08-11T14:50:00;26.50;91.90
44855;DHT22;30591;48.228;16.398;2022-08-11T14:53:07;26.50;91.50
44855;DHT22;30591;48.228;16.398;2022-08-11T14:55:36;26.50;91.40
44855;DHT22;30591;48.228;16.398;2022-08-11T14:58:23;26.50;91.70
44855;DHT22;30591;48.228;16.398;2022-08-11T15:00:53;26.40;91.30
44855;DHT22;30591;48.228;16.398;2022-08-11T15:03:24;26.30;91.60
44855;DHT22;30591;48.228;16.398;2022-08-11T15:05:56;26.10;92.20
44855;DHT22;30591;48.228;16.398;2022-08-11T15:08:32;26.10;92.90
44855;DHT22;30591;48.228;16.398;2022-08-11T15:11:19;26.00;93.60
44855;DHT22;30591;48.228;16.398;2022-08-11T15:14:07;25.90;94.00
44855;DHT22;30591;48.228;16.398;2022-08-11T15:16:41;25.90;94.30
44855;DHT22;30591;48.228;16.398;2022-08-11T15:19:28;25.90;94.50
44855;DHT22;30591;48.228;16.398;2022-08-11T15:22:08;25.80;94.70
44855;DHT22;30591;48.228;16.398;2022-08-11T15:24:56;25.80;94.60
44855;DHT22;30591;48.228;16.398;2022-08-11T15:27:24;25.80;94.70
44855;DHT22;30591;48.228;16.398;2022-08-11T15:30:11;25.80;94.90
44855;DHT22;30591;48.228;16.398;2022-08-11T15:33:04;25.90;95.00
44855;DHT22;30591;48.228;16.398;2022-08-11T15:35:52;25.80;95.10
44855;DHT22;30591;48.228;16.398;2022-08-11T15:38:46;25.80;95.10
44855;DHT22;30591;48.228;16.398;2022-08-11T15:41:26;25.70;95.00
44855;DHT22;30591;48.228;16.398;2022-08-11T15:44:28;25.70;95.50
44855;DHT22;30591;48.228;16.398;2022-08-11T15:47:51;25.70;94.90
44855;DHT22;30591;48.228;16.398;2022-08-11T15:50:32;25.70;95.10
44855;DHT22;30591;48.228;16.398;2022-08-11T15:53:03;25.80;94.80
44855;DHT22;30591;48.228;16.398;2022-08-11T15:55:31;25.70;94.90
44855;DHT22;30591;48.228;16.398;2022-08-11T15:58:03;25.70;95.10
44855;DHT22;30591;48.228;16.398;2022-08-11T16:00:50;25.60;94.50
44855;DHT22;30591;48.228;16.398;2022-08-11T16:03:59;25.60;94.80
44855;DHT22;30591;48.228;16.398;2022-08-11T16:07:04;25.60;94.10
44855;DHT22;30591;48.228;16.398;2022-08-11T16:09:40;25.60;94.00
44855;DHT22;30591;48.228;16.398;2022-08-11T16:12:29;25.50;94.00
44855;DHT22;30591;48.228;16.398;2022-08-11T16:15:06;25.50;94.10
44855;DHT22;30591;48.228;16.398;2022-08-11T16:18:00;25.50;94.30
44855;DHT22;30591;48.228;16.398;2022-08-11T16:20:29;25.50;94.30
44855;DHT22;30591;48.228;16.398;2022-08-11T16:23:01;25.50;94.30
44855;DHT22;30591;48.228;16.398;2022-08-11T16:25:32;25.60;94.30
44855;DHT22;30591;48.228;16.398;2022-08-11T16:28:21;25.50;95.00
44855;DHT22;30591;48.228;16.398;2022-08-11T16:30:50;25.50;94.60
44855;DHT22;30591;48.228;16.398;2022-08-11T16:33:18;25.40;94.60
44855;DHT22;30591;48.228;16.398;2022-08-11T16:36:09;25.30;94.60
44855;DHT22;30591;48.228;16.398;2022-08-11T16:38:56;25.30;95.00
44855;DHT22;30591;48.228;16.398;2022-08-11T16:41:26;25.40;95.00
44855;DHT22;30591;48.228;16.398;2022-08-11T16:44:13;25.50;94.90
44855;DHT22;30591;48.228;16.398;2022-08-11T16:47:10;25.50;94.90
44855;DHT22;30591;48.228;16.398;2022-08-11T16:49:41;25.40;94.60
44855;DHT22;30591;48.228;16.398;2022-08-11T16:52:18;25.30;95.00
44855;DHT22;30591;48.228;16.398;2022-08-11T16:54:45;25.30;94.70
44855;DHT22;30591;48.228;16.398;2022-08-11T16:57:25;25.20;94.90
44855;DHT22;30591;48.228;16.398;2022-08-11T17:00:15;25.30;95.20
44855;DHT22;30591;48.228;16.398;2022-08-11T17:02:50;25.30;95.20
44855;DHT22;30591;48.228;16.398;2022-08-11T17:05:43;25.30;94.90
44855;DHT22;30591;48.228;16.398;2022-08-11T17:08:34;25.10;93.50
44855;DHT22;30591;48.228;16.398;2022-08-11T17:11:28;25.10;93.00
44855;DHT22;30591;48.228;16.398;2022-08-11T17:14:18;25.10;92.50
44855;DHT22;30591;48.228;16.398;2022-08-11T17:17:04;25.10;92.60
44855;DHT22;30591;48.228;16.398;2022-08-11T17:19:33;25.10;92.40
44855;DHT22;30591;48.228;16.398;2022-08-11T17:22:23;25.00;92.80
44855;DHT22;30591;48.228;16.398;2022-08-11T17:25:10;25.00;92.90
44855;DHT22;30591;48.228;16.398;2022-08-11T17:27:37;25.00;92.70
44855;DHT22;30591;48.228;16.398;2022-08-11T17:30:07;25.00;92.60
44855;DHT22;30591;48.228;16.398;2022-08-11T17:32:36;24.90;92.70
44855;DHT22;30591;48.228;16.398;2022-08-11T17:35:35;24.90;92.80
44855;DHT22;30591;48.228;16.398;2022-08-11T17:38:08;24.90;92.70
44855;DHT22;30591;48.228;16.398;2022-08-11T17:40:39;24.90;93.00
44855;DHT22;30591;48.228;16.398;2022-08-11T17:43:28;24.90;93.20
44855;DHT22;30591;48.228;16.398;2022-08-11T17:46:15;24.70;92.70
44855;DHT22;30591;48.228;16.398;2022-08-11T17:49:02;24.70;92.70
44855;DHT22;30591;48.228;16.398;2022-08-11T17:51:34;24.70;92.70
44855;DHT22;30591;48.228;16.398;2022-08-11T17:54:21;24.60;92.80
44855;DHT22;30591;48.228;16.398;2022-08-11T17:57:08;24.60;92.90
44855;DHT22;30591;48.228;16.398;2022-08-11T17:59:56;24.60;93.10
44855;DHT22;30591;48.228;16.398;2022-08-11T18:02:37;24.50;93.40
44855;DHT22;30591;48.228;16.398;2022-08-11T18:05:28;24.50;93.80
44855;DHT22;30591;48.228;16.398;2022-08-11T18:07:59;24.50;94.00
44855;DHT22;30591;48.228;16.398;2022-08-11T18:10:45;24.40;94.00
44855;DHT22;30591;48.228;16.398;2022-08-11T18:13:37;24.40;94.20
44855;DHT22;30591;48.228;16.398;2022-08-11T18:16:25;24.40;94.50
44855;DHT22;30591;48.228;16.398;2022-08-11T18:19:11;24.30;94.80
44855;DHT22;30591;48.228;16.398;2022-08-11T18:22:27;24.30;95.20
44855;DHT22;30591;48.228;16.398;2022-08-11T18:25:18;24.20;95.50
44855;DHT22;30591;48.228;16.398;2022-08-11T18:28:12;24.20;95.90
44855;DHT22;30591;48.228;16.398;2022-08-11T18:31:01;24.20;96.20
44855;DHT22;30591;48.228;16.398;2022-08-11T18:33:53;24.10;96.40
44855;DHT22;30591;48.228;16.398;2022-08-11T18:39:35;24.00;96.50
44855;DHT22;30591;48.228;16.398;2022-08-11T18:42:24;24.00;97.30
44855;DHT22;30591;48.228;16.398;2022-08-11T18:45:14;24.00;97.20
44855;DHT22;30591;48.228;16.398;2022-08-11T18:48:14;23.90;97.60
44855;DHT22;30591;48.228;16.398;2022-08-11T18:51:04;23.80;98.00
44855;DHT22;30591;48.228;16.398;2022-08-11T18:54:06;23.80;98.00
44855;DHT22;30591;48.228;16.398;2022-08-11T18:56:53;24.80;99.90
44855;DHT22;30591;48.228;16.398;2022-08-11T18:59:41;24.20;99.90
44855;DHT22;30591;48.228;16.398;2022-08-11T19:02:29;23.80;99.90
44855;DHT22;30591;48.228;16.398;2022-08-11T19:05:18;23.70;99.90
44855;DHT22;30591;48.228;16.398;2022-08-11T19:08:29;23.50;99.90
44855;DHT22;30591;48.228;16.398;2022-08-11T19:11:16;23.40;99.90
44855;DHT22;30591;48.228;16.398;2022-08-11T19:14:10;23.40;99.90
44855;DHT22;30591;48.228;16.398;2022-08-11T19:16:58;23.30;99.90
44855;DHT22;30591;48.228;16.398;2022-08-11T19:20:06;23.20;99.90
44855;DHT22;30591;48.228;16.398;2022-08-11T19:22:54;23.20;99.90
44855;DHT22;30591;48.228;16.398;2022-08-11T19:25:42;23.10;99.90
44855;DHT22;30591;48.228;16.398;2022-08-11T19:28:28;23.20;99.90
44855;DHT22;30591;48.228;16.398;2022-08-11T19:31:14;23.00;99.90
44855;DHT22;30591;48.228;16.398;2022-08-11T19:34:00;23.00;99.90
44855;DHT22;30591;48.228;16.398;2022-08-11T19:36:47;23.00;99.90
44855;DHT22;30591;48.228;16.398;2022-08-11T19:39:34;22.80;99.90
44855;DHT22;30591;48.228;16.398;2022-08-11T19:42:20;22.80;99.90